EWG999 EHAM-EDDF
Flight info
| Callsign | EWG999 |
|---|---|
| Flight time | 0h 43m |
| Altitude | 35000 |
| Route | RENDI3E EDUPO Z739 MISGO DCT DIXAT DIXAT1B |
| Aircraft | A333/H-V/N |
Departure
| Time | 2026-04-17 12:25 |
|---|---|
| Airport | Amsterdam Airport Schiphol (EHAM) |
Arrival
| Time | 2026-04-17 13:09 |
|---|---|
| Airport | Frankfurt Main Airport (EDDF) |
| Time | Latitude | Longitude | Altitude | Speed | Heading |
|---|---|---|---|---|---|
| 2026-04-17 11:53 | 52.30698 | 4.77342 | 12 ft | 0 kts | 3° |
| 2026-04-17 12:19 | 52.30688 | 4.77341 | 12 ft | 3 kts | 3° |
| 2026-04-17 12:19 | 52.30669 | 4.77338 | 12 ft | 3 kts | 33° |
| 2026-04-17 12:19 | 52.30656 | 4.77315 | 16 ft | 3 kts | 79° |
| 2026-04-17 12:20 | 52.30654 | 4.77305 | 15 ft | 0 kts | 88° |
| 2026-04-17 12:21 | 52.30652 | 4.77333 | 12 ft | 7 kts | 96° |
| 2026-04-17 12:21 | 52.30639 | 4.77449 | 15 ft | 12 kts | 113° |
| 2026-04-17 12:21 | 52.30562 | 4.77554 | 18 ft | 18 kts | 152° |
| 2026-04-17 12:22 | 52.30508 | 4.77598 | 22 ft | 0 kts | 154° |
| 2026-04-17 12:23 | 52.30504 | 4.77601 | 21 ft | 3 kts | 156° |
| 2026-04-17 12:23 | 52.30492 | 4.77609 | 23 ft | 0 kts | 158° |
| 2026-04-17 12:23 | 52.30488 | 4.77612 | 23 ft | 3 kts | 156° |
| 2026-04-17 12:23 | 52.30437 | 4.77624 | 25 ft | 11 kts | 191° |
| 2026-04-17 12:24 | 52.30366 | 4.77508 | 22 ft | 18 kts | 231° |
| 2026-04-17 12:24 | 52.30354 | 4.77480 | 19 ft | 0 kts | 235° |
| 2026-04-17 12:25 | 52.30352 | 4.77475 | 19 ft | 5 kts | 235° |
| 2026-04-17 12:25 | 52.30203 | 4.77090 | 18 ft | 81 kts | 238° |
| 2026-04-17 12:25 | 52.29745 | 4.75952 | 50 ft | 154 kts | 234° |
| 2026-04-17 12:25 | 52.29083 | 4.74326 | 630 ft | 193 kts | 239° |
| 2026-04-17 12:26 | 52.28312 | 4.72270 | 1479 ft | 226 kts | 239° |
| 2026-04-17 12:26 | 52.27463 | 4.70057 | 2922 ft | 228 kts | 236° |
| 2026-04-17 12:26 | 52.26355 | 4.68235 | 4410 ft | 232 kts | 214° |
| 2026-04-17 12:26 | 52.24749 | 4.67437 | 5319 ft | 259 kts | 180° |
| 2026-04-17 12:27 | 52.23038 | 4.68355 | 6351 ft | 260 kts | 143° |
| 2026-04-17 12:27 | 52.21986 | 4.70605 | 7483 ft | 252 kts | 114° |
| 2026-04-17 12:27 | 52.21374 | 4.73306 | 8468 ft | 251 kts | 109° |
| 2026-04-17 12:27 | 52.20814 | 4.76018 | 9304 ft | 254 kts | 112° |
| 2026-04-17 12:28 | 52.20059 | 4.78639 | 9887 ft | 267 kts | 118° |
| 2026-04-17 12:28 | 52.19122 | 4.81404 | 10216 ft | 290 kts | 120° |
| 2026-04-17 12:28 | 52.18110 | 4.84415 | 10501 ft | 314 kts | 114° |
| 2026-04-17 12:28 | 52.17580 | 4.87960 | 10755 ft | 336 kts | 90° |
| 2026-04-17 12:29 | 52.17956 | 4.91827 | 11016 ft | 356 kts | 74° |
| 2026-04-17 12:29 | 52.18702 | 4.95800 | 11284 ft | 376 kts | 72° |
| 2026-04-17 12:29 | 52.19522 | 4.99924 | 11811 ft | 385 kts | 72° |
| 2026-04-17 12:29 | 52.20338 | 5.04096 | 12541 ft | 388 kts | 72° |
| 2026-04-17 12:30 | 52.21150 | 5.08315 | 13233 ft | 392 kts | 72° |
| 2026-04-17 12:30 | 52.21964 | 5.12604 | 13892 ft | 396 kts | 72° |
| 2026-04-17 12:30 | 52.22776 | 5.16924 | 14551 ft | 400 kts | 73° |
| 2026-04-17 12:30 | 52.23389 | 5.21366 | 15184 ft | 404 kts | 84° |
| 2026-04-17 12:31 | 52.23293 | 5.25960 | 15812 ft | 408 kts | 101° |
| 2026-04-17 12:31 | 52.22339 | 5.30329 | 16424 ft | 411 kts | 119° |
| 2026-04-17 12:31 | 52.20793 | 5.34269 | 17023 ft | 414 kts | 125° |
| 2026-04-17 12:31 | 52.19111 | 5.38103 | 17589 ft | 418 kts | 126° |
| 2026-04-17 12:32 | 52.17420 | 5.41912 | 18145 ft | 421 kts | 126° |
| 2026-04-17 12:32 | 52.15701 | 5.45804 | 18679 ft | 425 kts | 126° |
| 2026-04-17 12:32 | 52.13972 | 5.49734 | 19216 ft | 428 kts | 126° |
| 2026-04-17 12:32 | 52.12237 | 5.53688 | 19727 ft | 431 kts | 126° |
| 2026-04-17 12:33 | 52.10488 | 5.57673 | 20216 ft | 434 kts | 126° |
| 2026-04-17 12:33 | 52.08724 | 5.61690 | 20692 ft | 438 kts | 126° |
| 2026-04-17 12:33 | 52.06947 | 5.65724 | 21156 ft | 441 kts | 127° |
| 2026-04-17 12:33 | 52.05034 | 5.69635 | 21641 ft | 444 kts | 130° |
| 2026-04-17 12:34 | 52.03012 | 5.73453 | 22089 ft | 447 kts | 131° |
| 2026-04-17 12:34 | 52.00962 | 5.77268 | 22529 ft | 450 kts | 131° |
| 2026-04-17 12:34 | 51.98896 | 5.81104 | 22970 ft | 453 kts | 131° |
| 2026-04-17 12:34 | 51.96817 | 5.84967 | 23406 ft | 455 kts | 131° |
| 2026-04-17 12:35 | 51.94728 | 5.88860 | 23827 ft | 458 kts | 131° |
| 2026-04-17 12:35 | 51.92628 | 5.92775 | 24245 ft | 461 kts | 131° |
| 2026-04-17 12:35 | 51.90539 | 5.96667 | 24635 ft | 464 kts | 131° |
| 2026-04-17 12:35 | 51.88419 | 6.00614 | 25034 ft | 467 kts | 131° |
| 2026-04-17 12:37 | 51.73092 | 6.28778 | 27612 ft | 485 kts | 132° |
| 2026-04-17 12:37 | 51.70875 | 6.32816 | 27944 ft | 488 kts | 132° |
| 2026-04-17 12:38 | 51.68617 | 6.36919 | 28254 ft | 490 kts | 132° |
| 2026-04-17 12:38 | 51.66349 | 6.41036 | 28570 ft | 492 kts | 132° |
| 2026-04-17 12:38 | 51.64070 | 6.45168 | 28876 ft | 495 kts | 132° |
| 2026-04-17 12:38 | 51.61774 | 6.49324 | 29172 ft | 497 kts | 132° |
| 2026-04-17 12:39 | 51.59470 | 6.53489 | 29464 ft | 499 kts | 132° |
| 2026-04-17 12:39 | 51.57152 | 6.57675 | 29765 ft | 501 kts | 132° |
| 2026-04-17 12:39 | 51.54823 | 6.61873 | 30032 ft | 503 kts | 132° |
| 2026-04-17 12:40 | 51.50154 | 6.70263 | 29996 ft | 504 kts | 132° |
| 2026-04-17 12:40 | 51.45476 | 6.78646 | 29949 ft | 502 kts | 132° |
| 2026-04-17 12:40 | 51.43155 | 6.82794 | 29353 ft | 498 kts | 132° |
| 2026-04-17 12:41 | 51.40838 | 6.86943 | 28486 ft | 499 kts | 131° |
| 2026-04-17 12:41 | 51.38632 | 6.91222 | 27804 ft | 496 kts | 129° |
| 2026-04-17 12:41 | 51.36534 | 6.95536 | 27280 ft | 488 kts | 127° |
| 2026-04-17 12:41 | 51.34521 | 6.99795 | 26773 ft | 481 kts | 127° |
| 2026-04-17 12:42 | 51.32522 | 7.04023 | 26295 ft | 474 kts | 127° |
| 2026-04-17 12:42 | 51.30553 | 7.08194 | 25846 ft | 466 kts | 127° |
| 2026-04-17 12:42 | 51.28618 | 7.12295 | 25434 ft | 458 kts | 127° |
| 2026-04-17 12:42 | 51.26707 | 7.16325 | 25190 ft | 455 kts | 128° |
| 2026-04-17 12:43 | 51.24414 | 7.19867 | 24888 ft | 467 kts | 148° |
| 2026-04-17 12:43 | 51.21485 | 7.22170 | 24833 ft | 469 kts | 162° |
| 2026-04-17 12:43 | 51.18366 | 7.23657 | 24862 ft | 467 kts | 163° |
| 2026-04-17 12:43 | 51.15265 | 7.25302 | 24863 ft | 468 kts | 160° |
| 2026-04-17 12:44 | 51.12239 | 7.27203 | 24866 ft | 468 kts | 157° |
| 2026-04-17 12:44 | 51.09268 | 7.29342 | 24852 ft | 468 kts | 155° |
| 2026-04-17 12:44 | 51.06392 | 7.31554 | 24452 ft | 463 kts | 154° |
| 2026-04-17 12:44 | 51.03478 | 7.33871 | 23587 ft | 463 kts | 154° |
| 2026-04-17 12:45 | 51.00607 | 7.36196 | 22861 ft | 461 kts | 153° |
| 2026-04-17 12:45 | 50.97767 | 7.38511 | 22184 ft | 457 kts | 153° |
| 2026-04-17 12:45 | 50.94982 | 7.40789 | 21532 ft | 453 kts | 153° |
| 2026-04-17 12:45 | 50.92199 | 7.43067 | 20866 ft | 448 kts | 153° |
| 2026-04-17 12:46 | 50.89434 | 7.45329 | 20202 ft | 444 kts | 153° |
| 2026-04-17 12:46 | 50.86700 | 7.47565 | 19549 ft | 440 kts | 153° |
| 2026-04-17 12:46 | 50.83986 | 7.49782 | 18886 ft | 435 kts | 153° |
| 2026-04-17 12:46 | 50.81334 | 7.51946 | 18225 ft | 431 kts | 153° |
| 2026-04-17 12:47 | 50.78684 | 7.54107 | 17552 ft | 427 kts | 153° |
| 2026-04-17 12:47 | 50.76057 | 7.56246 | 16891 ft | 423 kts | 153° |
| 2026-04-17 12:47 | 50.73452 | 7.58363 | 16202 ft | 419 kts | 153° |
| 2026-04-17 12:47 | 50.70858 | 7.60469 | 15524 ft | 415 kts | 153° |
| 2026-04-17 12:48 | 50.68320 | 7.62530 | 14842 ft | 411 kts | 153° |
| 2026-04-17 12:48 | 50.65785 | 7.64582 | 14178 ft | 407 kts | 153° |
| 2026-04-17 12:48 | 50.63278 | 7.66610 | 13501 ft | 403 kts | 153° |
| 2026-04-17 12:48 | 50.60799 | 7.68614 | 12831 ft | 399 kts | 153° |
| 2026-04-17 12:49 | 50.58336 | 7.70602 | 12150 ft | 396 kts | 154° |
| 2026-04-17 12:49 | 50.55890 | 7.72573 | 11504 ft | 391 kts | 154° |
| 2026-04-17 12:49 | 50.53496 | 7.74501 | 11120 ft | 383 kts | 154° |
| 2026-04-17 12:49 | 50.51135 | 7.76397 | 11010 ft | 381 kts | 154° |
| 2026-04-17 12:50 | 50.48795 | 7.78276 | 11001 ft | 383 kts | 154° |
| 2026-04-17 12:50 | 50.46425 | 7.80178 | 10816 ft | 379 kts | 154° |
| 2026-04-17 12:50 | 50.44090 | 7.82102 | 10062 ft | 380 kts | 150° |
| 2026-04-17 12:50 | 50.41921 | 7.84463 | 9392 ft | 379 kts | 143° |
| 2026-04-17 12:51 | 50.39861 | 7.87001 | 9070 ft | 372 kts | 142° |
| 2026-04-17 12:51 | 50.37839 | 7.89521 | 8998 ft | 372 kts | 142° |
| 2026-04-17 12:51 | 50.35810 | 7.92048 | 9002 ft | 373 kts | 142° |
| 2026-04-17 12:51 | 50.33769 | 7.94584 | 9000 ft | 373 kts | 142° |
| 2026-04-17 12:52 | 50.31734 | 7.97106 | 9001 ft | 373 kts | 142° |
| 2026-04-17 12:52 | 50.30383 | 7.98774 | 8999 ft | 373 kts | 142° |
| 2026-04-17 12:52 | 50.27683 | 8.02104 | 8998 ft | 373 kts | 142° |
| 2026-04-17 12:52 | 50.25643 | 8.04622 | 9000 ft | 373 kts | 142° |
| 2026-04-17 12:53 | 50.23604 | 8.07142 | 9000 ft | 373 kts | 141° |
| 2026-04-17 12:53 | 50.22352 | 8.08985 | 8999 ft | 374 kts | 131° |
| 2026-04-17 12:53 | 50.20962 | 8.12406 | 9002 ft | 375 kts | 116° |
| 2026-04-17 12:53 | 50.19904 | 8.16106 | 9002 ft | 365 kts | 114° |
| 2026-04-17 12:54 | 50.18939 | 8.19647 | 9018 ft | 344 kts | 113° |
| 2026-04-17 12:54 | 50.18030 | 8.22993 | 9003 ft | 325 kts | 113° |
| 2026-04-17 12:54 | 50.17169 | 8.26159 | 9002 ft | 308 kts | 113° |
| 2026-04-17 12:54 | 50.16355 | 8.29158 | 9003 ft | 294 kts | 113° |
| 2026-04-17 12:55 | 50.15571 | 8.32038 | 8995 ft | 291 kts | 113° |
| 2026-04-17 12:55 | 50.14781 | 8.34935 | 9002 ft | 291 kts | 113° |
| 2026-04-17 12:55 | 50.13992 | 8.37834 | 9001 ft | 291 kts | 113° |
| 2026-04-17 12:55 | 50.13195 | 8.40756 | 9000 ft | 291 kts | 113° |
| 2026-04-17 12:56 | 50.12401 | 8.43665 | 8999 ft | 291 kts | 113° |
| 2026-04-17 12:56 | 50.11605 | 8.46580 | 8999 ft | 291 kts | 113° |
| 2026-04-17 12:56 | 50.10808 | 8.49500 | 9003 ft | 291 kts | 113° |
| 2026-04-17 12:56 | 50.10015 | 8.52404 | 9001 ft | 291 kts | 113° |
| 2026-04-17 12:57 | 50.09221 | 8.55306 | 9001 ft | 291 kts | 113° |
| 2026-04-17 12:57 | 50.08430 | 8.58205 | 9002 ft | 291 kts | 113° |
| 2026-04-17 12:57 | 50.07638 | 8.61098 | 9000 ft | 291 kts | 113° |
| 2026-04-17 12:57 | 50.06846 | 8.63997 | 9001 ft | 291 kts | 113° |
| 2026-04-17 12:58 | 50.06052 | 8.66902 | 9000 ft | 291 kts | 113° |
| 2026-04-17 12:58 | 50.05259 | 8.69799 | 9003 ft | 291 kts | 113° |
| 2026-04-17 12:58 | 50.04464 | 8.72698 | 8996 ft | 291 kts | 114° |
| 2026-04-17 12:58 | 50.03702 | 8.75617 | 8998 ft | 291 kts | 107° |
| 2026-04-17 12:59 | 50.03324 | 8.78695 | 8827 ft | 292 kts | 96° |
| 2026-04-17 12:59 | 50.03165 | 8.81826 | 8437 ft | 293 kts | 94° |
| 2026-04-17 12:59 | 50.03036 | 8.85005 | 8130 ft | 289 kts | 94° |
| 2026-04-17 12:59 | 50.02914 | 8.88071 | 7806 ft | 287 kts | 94° |
| 2026-04-17 13:00 | 50.02799 | 8.91165 | 7466 ft | 285 kts | 91° |
| 2026-04-17 13:00 | 50.03008 | 8.94207 | 7109 ft | 283 kts | 77° |
| 2026-04-17 13:00 | 50.03578 | 8.97138 | 6760 ft | 282 kts | 69° |
| 2026-04-17 13:00 | 50.04283 | 8.99957 | 6575 ft | 274 kts | 68° |
| 2026-04-17 13:01 | 50.04983 | 9.02660 | 6461 ft | 264 kts | 68° |
| 2026-04-17 13:01 | 50.05829 | 9.05121 | 6366 ft | 254 kts | 47° |
| 2026-04-17 13:01 | 50.07235 | 9.06634 | 6239 ft | 242 kts | 18° |
| 2026-04-17 13:01 | 50.08847 | 9.06849 | 5921 ft | 236 kts | 348° |
| 2026-04-17 13:02 | 50.10350 | 9.05779 | 5250 ft | 244 kts | 319° |
| 2026-04-17 13:02 | 50.11337 | 9.03610 | 4624 ft | 250 kts | 291° |
| 2026-04-17 13:02 | 50.11842 | 9.01064 | 4355 ft | 241 kts | 284° |
| 2026-04-17 13:02 | 50.12243 | 8.98600 | 4216 ft | 228 kts | 283° |
| 2026-04-17 13:03 | 50.12522 | 8.96235 | 4138 ft | 216 kts | 272° |
| 2026-04-17 13:03 | 50.12379 | 8.93971 | 4065 ft | 205 kts | 257° |
| 2026-04-17 13:03 | 50.11963 | 8.91928 | 3985 ft | 196 kts | 250° |
| 2026-04-17 13:03 | 50.11491 | 8.89990 | 3939 ft | 187 kts | 250° |
| 2026-04-17 13:04 | 50.11038 | 8.88118 | 3819 ft | 183 kts | 250° |
| 2026-04-17 13:04 | 50.10591 | 8.86251 | 3786 ft | 183 kts | 250° |
| 2026-04-17 13:04 | 50.10150 | 8.84394 | 3784 ft | 183 kts | 250° |
| 2026-04-17 13:04 | 50.09702 | 8.82493 | 3603 ft | 183 kts | 250° |
| 2026-04-17 13:05 | 50.09260 | 8.80634 | 3368 ft | 182 kts | 250° |
| 2026-04-17 13:05 | 50.08821 | 8.78795 | 3082 ft | 179 kts | 250° |
| 2026-04-17 13:05 | 50.08384 | 8.76975 | 2837 ft | 180 kts | 250° |
| 2026-04-17 13:05 | 50.07951 | 8.75153 | 2574 ft | 177 kts | 250° |
| 2026-04-17 13:06 | 50.07538 | 8.73432 | 2356 ft | 161 kts | 250° |
| 2026-04-17 13:06 | 50.07165 | 8.71878 | 2149 ft | 148 kts | 250° |
| 2026-04-17 13:06 | 50.06789 | 8.70408 | 1918 ft | 148 kts | 246° |
| 2026-04-17 13:06 | 50.06389 | 8.68940 | 1673 ft | 147 kts | 247° |
| 2026-04-17 13:07 | 50.06019 | 8.67451 | 1421 ft | 147 kts | 249° |
| 2026-04-17 13:07 | 50.05685 | 8.65964 | 1167 ft | 143 kts | 252° |
| 2026-04-17 13:07 | 50.05349 | 8.64514 | 963 ft | 143 kts | 251° |
| 2026-04-17 13:07 | 50.05006 | 8.63074 | 826 ft | 142 kts | 250° |
| 2026-04-17 13:08 | 50.04677 | 8.61620 | 676 ft | 142 kts | 252° |
| 2026-04-17 13:08 | 50.04362 | 8.60156 | 572 ft | 142 kts | 248° |
| 2026-04-17 13:08 | 50.04007 | 8.58714 | 428 ft | 143 kts | 249° |
| 2026-04-17 13:08 | 50.03669 | 8.57289 | 371 ft | 131 kts | 247° |
| 2026-04-17 13:09 | 50.03472 | 8.56427 | 367 ft | 48 kts | 256° |
| 2026-04-17 13:09 | 50.03477 | 8.56319 | 368 ft | 1 kts | 313° |
| 2026-04-17 13:09 | 50.03484 | 8.56319 | 366 ft | 1 kts | 353° |
| 2026-04-17 13:09 | 50.03499 | 8.56333 | 364 ft | 6 kts | 30° |
| 2026-04-17 13:10 | 50.03553 | 8.56392 | 369 ft | 13 kts | 36° |
| 2026-04-17 13:10 | 50.03637 | 8.56499 | 370 ft | 19 kts | 39° |
| 2026-04-17 13:10 | 50.03750 | 8.56644 | 367 ft | 8 kts | 48° |
| 2026-04-17 13:10 | 50.03783 | 8.56712 | 366 ft | 0 kts | 56° |
| 2026-04-17 13:11 | 50.03793 | 8.56736 | 367 ft | 6 kts | 60° |
| 2026-04-17 13:11 | 50.03820 | 8.56835 | 364 ft | 14 kts | 69° |
| 2026-04-17 13:11 | 50.03859 | 8.56998 | 363 ft | 18 kts | 69° |
| 2026-04-17 13:12 | 50.03906 | 8.57192 | 363 ft | 20 kts | 69° |
| 2026-04-17 13:12 | 50.04011 | 8.57628 | 365 ft | 24 kts | 70° |
| 2026-04-17 13:12 | 50.04057 | 8.57827 | 363 ft | 18 kts | 70° |
| 2026-04-17 13:13 | 50.04103 | 8.58021 | 361 ft | 19 kts | 68° |
| 2026-04-17 13:13 | 50.04201 | 8.58177 | 353 ft | 24 kts | 27° |
| 2026-04-17 13:13 | 50.04278 | 8.58197 | 335 ft | 4 kts | 351° |
| 2026-04-17 13:13 | 50.04324 | 8.58177 | 331 ft | 9 kts | 338° |
| 2026-04-17 13:14 | 50.04380 | 8.58146 | 332 ft | 8 kts | 341° |
| 2026-04-17 13:14 | 50.04431 | 8.58120 | 334 ft | 7 kts | 341° |
| 2026-04-17 13:14 | 50.04477 | 8.58092 | 337 ft | 7 kts | 339° |
| 2026-04-17 13:14 | 50.04520 | 8.58061 | 351 ft | 6 kts | 333° |
| 2026-04-17 13:15 | 50.04553 | 8.58040 | 352 ft | 5 kts | 337° |
| 2026-04-17 13:15 | 50.04584 | 8.58023 | 356 ft | 6 kts | 342° |
| 2026-04-17 13:15 | 50.04629 | 8.58001 | 356 ft | 0 kts | 342° |
| 2026-04-17 13:16 | 50.04632 | 8.58001 | 355 ft | 2 kts | 346° |
| 2026-04-17 13:16 | 50.04645 | 8.57994 | 354 ft | 0 kts | 342° |
| 2026-04-17 13:16 | 50.04650 | 8.57991 | 354 ft | 3 kts | 341° |
| 2026-04-17 13:17 | 50.04686 | 8.57972 | 359 ft | 8 kts | 340° |
| 2026-04-17 13:17 | 50.04755 | 8.57941 | 358 ft | 10 kts | 2° |
| 2026-04-17 13:17 | 50.04795 | 8.57988 | 361 ft | 5 kts | 63° |
| 2026-04-17 13:17 | 50.04801 | 8.58044 | 361 ft | 5 kts | 94° |
| 2026-04-17 13:18 | 50.04776 | 8.58084 | 360 ft | 6 kts | 147° |
| 2026-04-17 13:18 | 50.04729 | 8.58117 | 360 ft | 6 kts | 159° |
| 2026-04-17 13:18 | 50.04728 | 8.58118 | 360 ft | 0 kts | 159° |